sensor_id;sensor_type;location;lat;lon;timestamp;temperature;humidity
74376;HTU21D;62812;55.188;61.302;2024-01-11T00:02:11;-20.82;53.56
74376;HTU21D;62812;55.188;61.302;2024-01-11T00:04:37;-20.88;53.81
74376;HTU21D;62812;55.188;61.302;2024-01-11T00:07:06;-20.91;53.67
74376;HTU21D;62812;55.188;61.302;2024-01-11T00:09:33;-20.91;53.72
74376;HTU21D;62812;55.188;61.302;2024-01-11T00:11:59;-20.95;53.56
74376;HTU21D;62812;55.188;61.302;2024-01-11T00:14:26;-20.99;53.67
74376;HTU21D;62812;55.188;61.302;2024-01-11T00:16:54;-21.07;53.57
74376;HTU21D;62812;55.188;61.302;2024-01-11T00:19:21;-21.09;54.01
74376;HTU21D;62812;55.188;61.302;2024-01-11T00:21:48;-21.11;53.95
74376;HTU21D;62812;55.188;61.302;2024-01-11T00:24:16;-21.17;53.99
74376;HTU21D;62812;55.188;61.302;2024-01-11T00:26:42;-21.20;54.28
74376;HTU21D;62812;55.188;61.302;2024-01-11T00:29:10;-21.24;54.42
74376;HTU21D;62812;55.188;61.302;2024-01-11T00:31:36;-21.31;54.78
74376;HTU21D;62812;55.188;61.302;2024-01-11T00:34:07;-21.32;54.92
74376;HTU21D;62812;55.188;61.302;2024-01-11T00:36:34;-21.31;55.14
74376;HTU21D;62812;55.188;61.302;2024-01-11T00:39:01;-21.28;55.44
74376;HTU21D;62812;55.188;61.302;2024-01-11T00:41:28;-21.29;55.33
74376;HTU21D;62812;55.188;61.302;2024-01-11T00:43:54;-21.28;55.30
74376;HTU21D;62812;55.188;61.302;2024-01-11T00:46:21;-21.29;55.48
74376;HTU21D;62812;55.188;61.302;2024-01-11T00:48:48;-21.29;55.42
74376;HTU21D;62812;55.188;61.302;2024-01-11T00:51:16;-21.26;55.53
74376;HTU21D;62812;55.188;61.302;2024-01-11T00:53:43;-21.24;55.74
74376;HTU21D;62812;55.188;61.302;2024-01-11T00:56:16;-21.18;55.85
74376;HTU21D;62812;55.188;61.302;2024-01-11T00:58:43;-21.17;55.67
74376;HTU21D;62812;55.188;61.302;2024-01-11T01:01:10;-21.12;55.71
74376;HTU21D;62812;55.188;61.302;2024-01-11T01:03:36;-21.11;55.39
74376;HTU21D;62812;55.188;61.302;2024-01-11T01:06:03;-21.10;55.37
74376;HTU21D;62812;55.188;61.302;2024-01-11T01:08:43;-21.08;55.10
74376;HTU21D;62812;55.188;61.302;2024-01-11T01:11:10;-21.10;55.00
74376;HTU21D;62812;55.188;61.302;2024-01-11T01:13:37;-21.12;55.12
74376;HTU21D;62812;55.188;61.302;2024-01-11T01:16:04;-21.14;55.02
74376;HTU21D;62812;55.188;61.302;2024-01-11T01:18:31;-21.15;55.21
74376;HTU21D;62812;55.188;61.302;2024-01-11T01:21:00;-21.15;55.02
74376;HTU21D;62812;55.188;61.302;2024-01-11T01:23:27;-21.16;55.16
74376;HTU21D;62812;55.188;61.302;2024-01-11T01:25:55;-21.13;55.50
74376;HTU21D;62812;55.188;61.302;2024-01-11T01:28:22;-21.07;55.37
74376;HTU21D;62812;55.188;61.302;2024-01-11T01:30:52;-21.06;55.23
74376;HTU21D;62812;55.188;61.302;2024-01-11T01:33:22;-21.06;55.43
74376;HTU21D;62812;55.188;61.302;2024-01-11T01:35:52;-21.05;55.42
74376;HTU21D;62812;55.188;61.302;2024-01-11T01:38:18;-21.06;55.63
74376;HTU21D;62812;55.188;61.302;2024-01-11T01:40:45;-21.05;55.87
74376;HTU21D;62812;55.188;61.302;2024-01-11T01:43:13;-21.02;56.23
74376;HTU21D;62812;55.188;61.302;2024-01-11T01:45:42;-20.85;56.52
74376;HTU21D;62812;55.188;61.302;2024-01-11T01:48:12;-20.69;56.11
74376;HTU21D;62812;55.188;61.302;2024-01-11T01:50:38;-20.57;55.59
74376;HTU21D;62812;55.188;61.302;2024-01-11T01:53:05;-20.48;55.21
74376;HTU21D;62812;55.188;61.302;2024-01-11T01:55:33;-20.43;55.01
74376;HTU21D;62812;55.188;61.302;2024-01-11T01:58:00;-20.50;54.72
74376;HTU21D;62812;55.188;61.302;2024-01-11T02:00:30;-20.53;54.70
74376;HTU21D;62812;55.188;61.302;2024-01-11T02:02:59;-20.57;54.93
74376;HTU21D;62812;55.188;61.302;2024-01-11T02:05:28;-20.62;55.37
74376;HTU21D;62812;55.188;61.302;2024-01-11T02:07:56;-20.61;55.96
74376;HTU21D;62812;55.188;61.302;2024-01-11T02:10:24;-20.61;56.41
74376;HTU21D;62812;55.188;61.302;2024-01-11T02:12:51;-20.63;56.33
74376;HTU21D;62812;55.188;61.302;2024-01-11T02:15:18;-20.61;56.31
74376;HTU21D;62812;55.188;61.302;2024-01-11T02:17:49;-20.59;56.06
74376;HTU21D;62812;55.188;61.302;2024-01-11T02:20:15;-20.59;56.32
74376;HTU21D;62812;55.188;61.302;2024-01-11T02:22:52;-20.56;56.29
74376;HTU21D;62812;55.188;61.302;2024-01-11T02:25:20;-20.57;56.48
74376;HTU21D;62812;55.188;61.302;2024-01-11T02:27:48;-20.58;56.58
74376;HTU21D;62812;55.188;61.302;2024-01-11T02:30:15;-20.61;56.93
74376;HTU21D;62812;55.188;61.302;2024-01-11T02:32:44;-20.63;57.29
74376;HTU21D;62812;55.188;61.302;2024-01-11T02:35:15;-20.52;57.33
74376;HTU21D;62812;55.188;61.302;2024-01-11T02:37:42;-20.50;57.34
74376;HTU21D;62812;55.188;61.302;2024-01-11T02:40:09;-20.44;57.26
74376;HTU21D;62812;55.188;61.302;2024-01-11T02:42:40;-20.43;57.18
74376;HTU21D;62812;55.188;61.302;2024-01-11T02:45:10;-20.40;57.42
74376;HTU21D;62812;55.188;61.302;2024-01-11T02:47:37;-20.34;57.70
74376;HTU21D;62812;55.188;61.302;2024-01-11T02:50:04;-20.19;57.53
74376;HTU21D;62812;55.188;61.302;2024-01-11T02:52:37;-20.08;57.45
74376;HTU21D;62812;55.188;61.302;2024-01-11T02:55:05;-20.05;57.42
74376;HTU21D;62812;55.188;61.302;2024-01-11T02:57:34;-19.99;57.65
74376;HTU21D;62812;55.188;61.302;2024-01-11T03:00:02;-19.92;57.88
74376;HTU21D;62812;55.188;61.302;2024-01-11T03:02:29;-19.70;57.67
74376;HTU21D;62812;55.188;61.302;2024-01-11T03:04:56;-19.64;57.74
74376;HTU21D;62812;55.188;61.302;2024-01-11T03:07:23;-19.53;57.69
74376;HTU21D;62812;55.188;61.302;2024-01-11T03:09:49;-19.46;57.87
74376;HTU21D;62812;55.188;61.302;2024-01-11T03:12:16;-19.45;58.04
74376;HTU21D;62812;55.188;61.302;2024-01-11T03:14:42;-19.49;58.46
74376;HTU21D;62812;55.188;61.302;2024-01-11T03:17:10;-19.46;58.45
74376;HTU21D;62812;55.188;61.302;2024-01-11T03:19:39;-19.46;58.82
74376;HTU21D;62812;55.188;61.302;2024-01-11T03:22:13;-19.48;59.23
74376;HTU21D;62812;55.188;61.302;2024-01-11T03:24:45;-19.42;59.38
74376;HTU21D;62812;55.188;61.302;2024-01-11T03:27:11;-19.37;59.71
74376;HTU21D;62812;55.188;61.302;2024-01-11T03:29:40;-19.39;59.66
74376;HTU21D;62812;55.188;61.302;2024-01-11T03:32:07;-19.43;59.84
74376;HTU21D;62812;55.188;61.302;2024-01-11T03:34:38;-19.51;60.28
74376;HTU21D;62812;55.188;61.302;2024-01-11T03:37:05;-19.58;60.35
74376;HTU21D;62812;55.188;61.302;2024-01-11T03:39:31;-19.63;60.51
74376;HTU21D;62812;55.188;61.302;2024-01-11T03:42:23;-19.70;60.57
74376;HTU21D;62812;55.188;61.302;2024-01-11T03:44:50;-19.77;60.51
74376;HTU21D;62812;55.188;61.302;2024-01-11T03:47:17;-19.80;60.41
74376;HTU21D;62812;55.188;61.302;2024-01-11T03:49:45;-19.83;60.50
74376;HTU21D;62812;55.188;61.302;2024-01-11T03:52:11;-19.83;60.37
74376;HTU21D;62812;55.188;61.302;2024-01-11T03:54:43;-19.90;60.09
74376;HTU21D;62812;55.188;61.302;2024-01-11T03:57:13;-19.94;59.73
74376;HTU21D;62812;55.188;61.302;2024-01-11T03:59:40;-19.99;60.02
74376;HTU21D;62812;55.188;61.302;2024-01-11T04:02:09;-20.02;59.32
74376;HTU21D;62812;55.188;61.302;2024-01-11T04:04:36;-20.02;58.74
74376;HTU21D;62812;55.188;61.302;2024-01-11T04:07:04;-19.97;58.16
74376;HTU21D;62812;55.188;61.302;2024-01-11T04:09:30;-19.84;57.32
74376;HTU21D;62812;55.188;61.302;2024-01-11T04:11:58;-19.81;56.30
74376;HTU21D;62812;55.188;61.302;2024-01-11T04:14:24;-19.76;55.76
74376;HTU21D;62812;55.188;61.302;2024-01-11T04:16:51;-19.67;54.79
74376;HTU21D;62812;55.188;61.302;2024-01-11T04:19:17;-19.47;54.49
74376;HTU21D;62812;55.188;61.302;2024-01-11T04:21:44;-19.36;53.88
74376;HTU21D;62812;55.188;61.302;2024-01-11T04:24:12;-19.31;53.13
74376;HTU21D;62812;55.188;61.302;2024-01-11T04:26:38;-19.36;52.01
74376;HTU21D;62812;55.188;61.302;2024-01-11T04:29:05;-19.36;52.54
74376;HTU21D;62812;55.188;61.302;2024-01-11T04:31:31;-19.39;52.11
74376;HTU21D;62812;55.188;61.302;2024-01-11T04:33:58;-19.47;51.59
74376;HTU21D;62812;55.188;61.302;2024-01-11T04:36:25;-19.51;51.46
74376;HTU21D;62812;55.188;61.302;2024-01-11T04:38:52;-19.54;51.73
74376;HTU21D;62812;55.188;61.302;2024-01-11T04:41:20;-19.55;51.75
74376;HTU21D;62812;55.188;61.302;2024-01-11T04:43:47;-19.54;51.33
74376;HTU21D;62812;55.188;61.302;2024-01-11T04:46:15;-19.48;51.74
74376;HTU21D;62812;55.188;61.302;2024-01-11T04:48:41;-19.48;50.94
74376;HTU21D;62812;55.188;61.302;2024-01-11T04:51:08;-19.39;51.71
74376;HTU21D;62812;55.188;61.302;2024-01-11T04:53:38;-19.38;50.89
74376;HTU21D;62812;55.188;61.302;2024-01-11T04:56:10;-19.37;51.14
74376;HTU21D;62812;55.188;61.302;2024-01-11T04:58:53;-19.30;50.49
74376;HTU21D;62812;55.188;61.302;2024-01-11T05:01:21;-19.31;50.92
74376;HTU21D;62812;55.188;61.302;2024-01-11T05:03:50;-19.21;50.75
74376;HTU21D;62812;55.188;61.302;2024-01-11T05:07:09;-19.21;50.04
74376;HTU21D;62812;55.188;61.302;2024-01-11T05:09:36;-19.20;49.50
74376;HTU21D;62812;55.188;61.302;2024-01-11T05:12:03;-19.08;49.61
74376;HTU21D;62812;55.188;61.302;2024-01-11T05:14:34;-19.11;48.66
74376;HTU21D;62812;55.188;61.302;2024-01-11T05:17:27;-19.01;48.91
74376;HTU21D;62812;55.188;61.302;2024-01-11T05:20:27;-18.99;48.58
74376;HTU21D;62812;55.188;61.302;2024-01-11T05:23:23;-18.94;48.71
74376;HTU21D;62812;55.188;61.302;2024-01-11T05:25:59;-18.93;48.36
74376;HTU21D;62812;55.188;61.302;2024-01-11T05:28:30;-18.88;48.18
74376;HTU21D;62812;55.188;61.302;2024-01-11T05:31:01;-18.85;48.00
74376;HTU21D;62812;55.188;61.302;2024-01-11T05:33:30;-18.73;48.54
74376;HTU21D;62812;55.188;61.302;2024-01-11T05:35:59;-18.76;47.63
74376;HTU21D;62812;55.188;61.302;2024-01-11T05:38:28;-18.89;47.83
74376;HTU21D;62812;55.188;61.302;2024-01-11T05:41:00;-18.78;48.51
74376;HTU21D;62812;55.188;61.302;2024-01-11T05:43:31;-18.86;47.83
74376;HTU21D;62812;55.188;61.302;2024-01-11T05:45:59;-18.88;48.66
74376;HTU21D;62812;55.188;61.302;2024-01-11T05:48:38;-18.87;48.18
74376;HTU21D;62812;55.188;61.302;2024-01-11T05:51:22;-18.89;47.98
74376;HTU21D;62812;55.188;61.302;2024-01-11T05:53:52;-18.87;48.57
74376;HTU21D;62812;55.188;61.302;2024-01-11T05:56:23;-18.78;47.87
74376;HTU21D;62812;55.188;61.302;2024-01-11T05:58:56;-18.77;47.84
74376;HTU21D;62812;55.188;61.302;2024-01-11T06:01:43;-18.64;47.97
74376;HTU21D;62812;55.188;61.302;2024-01-11T06:04:32;-18.60;47.45
74376;HTU21D;62812;55.188;61.302;2024-01-11T06:07:00;-18.61;47.75
74376;HTU21D;62812;55.188;61.302;2024-01-11T06:09:37;-18.51;48.01
74376;HTU21D;62812;55.188;61.302;2024-01-11T06:12:10;-18.57;46.65
74376;HTU21D;62812;55.188;61.302;2024-01-11T06:15:26;-18.58;47.07
74376;HTU21D;62812;55.188;61.302;2024-01-11T06:18:24;-18.59;47.78
74376;HTU21D;62812;55.188;61.302;2024-01-11T06:20:56;-18.57;47.28
74376;HTU21D;62812;55.188;61.302;2024-01-11T06:23:33;-18.50;47.51
74376;HTU21D;62812;55.188;61.302;2024-01-11T06:26:07;-18.47;46.29
74376;HTU21D;62812;55.188;61.302;2024-01-11T06:28:40;-18.45;46.67
74376;HTU21D;62812;55.188;61.302;2024-01-11T06:31:16;-18.42;46.66
74376;HTU21D;62812;55.188;61.302;2024-01-11T06:33:49;-18.42;46.59
74376;HTU21D;62812;55.188;61.302;2024-01-11T06:36:26;-18.36;46.82
74376;HTU21D;62812;55.188;61.302;2024-01-11T06:39:03;-18.37;46.97
74376;HTU21D;62812;55.188;61.302;2024-01-11T06:41:36;-18.35;47.02
74376;HTU21D;62812;55.188;61.302;2024-01-11T06:44:11;-18.34;46.84
74376;HTU21D;62812;55.188;61.302;2024-01-11T06:46:54;-18.35;47.49
74376;HTU21D;62812;55.188;61.302;2024-01-11T06:49:48;-18.32;47.15
74376;HTU21D;62812;55.188;61.302;2024-01-11T06:52:39;-18.31;47.18
74376;HTU21D;62812;55.188;61.302;2024-01-11T06:55:21;-18.28;47.20
74376;HTU21D;62812;55.188;61.302;2024-01-11T06:58:25;-18.29;46.98
74376;HTU21D;62812;55.188;61.302;2024-01-11T07:01:33;-18.31;46.67
74376;HTU21D;62812;55.188;61.302;2024-01-11T07:04:03;-18.24;47.02
74376;HTU21D;62812;55.188;61.302;2024-01-11T07:06:45;-18.16;47.18
74376;HTU21D;62812;55.188;61.302;2024-01-11T07:09:29;-18.04;47.71
74376;HTU21D;62812;55.188;61.302;2024-01-11T07:12:25;-17.86;46.25
74376;HTU21D;62812;55.188;61.302;2024-01-11T07:15:39;-17.86;46.22
74376;HTU21D;62812;55.188;61.302;2024-01-11T07:18:37;-17.89;46.28
74376;HTU21D;62812;55.188;61.302;2024-01-11T07:21:21;-17.91;46.27
74376;HTU21D;62812;55.188;61.302;2024-01-11T07:24:10;-17.91;46.35
74376;HTU21D;62812;55.188;61.302;2024-01-11T07:27:13;-17.90;46.12
74376;HTU21D;62812;55.188;61.302;2024-01-11T07:29:55;-17.91;46.67
74376;HTU21D;62812;55.188;61.302;2024-01-11T07:37:17;-17.82;46.22
74376;HTU21D;62812;55.188;61.302;2024-01-11T07:40:20;-17.76;46.90
74376;HTU21D;62812;55.188;61.302;2024-01-11T07:43:17;-17.75;46.28
74376;HTU21D;62812;55.188;61.302;2024-01-11T07:45:58;-17.70;47.34
74376;HTU21D;62812;55.188;61.302;2024-01-11T07:49:16;-17.67;46.07
74376;HTU21D;62812;55.188;61.302;2024-01-11T07:52:38;-17.69;46.89
74376;HTU21D;62812;55.188;61.302;2024-01-11T07:56:05;-17.57;47.34
74376;HTU21D;62812;55.188;61.302;2024-01-11T07:59:36;-17.52;46.49
74376;HTU21D;62812;55.188;61.302;2024-01-11T08:03:15;-17.40;45.97
74376;HTU21D;62812;55.188;61.302;2024-01-11T08:07:09;-17.36;46.17
74376;HTU21D;62812;55.188;61.302;2024-01-11T08:09:58;-17.37;46.80
74376;HTU21D;62812;55.188;61.302;2024-01-11T08:16:19;-17.35;46.10
74376;HTU21D;62812;55.188;61.302;2024-01-11T08:19:41;-17.36;45.80
74376;HTU21D;62812;55.188;61.302;2024-01-11T08:22:30;-17.31;46.54
74376;HTU21D;62812;55.188;61.302;2024-01-11T08:25:50;-17.38;45.84
74376;HTU21D;62812;55.188;61.302;2024-01-11T08:29:15;-17.39;46.33
74376;HTU21D;62812;55.188;61.302;2024-01-11T08:32:02;-17.30;46.04
74376;HTU21D;62812;55.188;61.302;2024-01-11T08:34:56;-17.26;46.60
74376;HTU21D;62812;55.188;61.302;2024-01-11T08:37:36;-17.24;45.92
74376;HTU21D;62812;55.188;61.302;2024-01-11T08:40:03;-17.22;46.68
74376;HTU21D;62812;55.188;61.302;2024-01-11T08:42:43;-17.14;46.60
74376;HTU21D;62812;55.188;61.302;2024-01-11T08:45:10;-16.98;45.86
74376;HTU21D;62812;55.188;61.302;2024-01-11T08:48:14;-17.01;46.09
74376;HTU21D;62812;55.188;61.302;2024-01-11T08:50:59;-16.97;46.01
74376;HTU21D;62812;55.188;61.302;2024-01-11T08:53:28;-16.91;47.00
74376;HTU21D;62812;55.188;61.302;2024-01-11T08:55:58;-16.95;45.69
74376;HTU21D;62812;55.188;61.302;2024-01-11T08:58:46;-17.03;45.52
74376;HTU21D;62812;55.188;61.302;2024-01-11T09:01:18;-17.12;45.14
74376;HTU21D;62812;55.188;61.302;2024-01-11T09:03:58;-17.07;45.81
74376;HTU21D;62812;55.188;61.302;2024-01-11T09:06:26;-17.03;46.55
74376;HTU21D;62812;55.188;61.302;2024-01-11T09:09:11;-17.14;45.38
74376;HTU21D;62812;55.188;61.302;2024-01-11T09:11:39;-17.13;46.22
74376;HTU21D;62812;55.188;61.302;2024-01-11T09:14:11;-17.08;45.92
74376;HTU21D;62812;55.188;61.302;2024-01-11T09:16:41;-17.03;45.89
74376;HTU21D;62812;55.188;61.302;2024-01-11T09:19:12;-16.99;45.80
74376;HTU21D;62812;55.188;61.302;2024-01-11T09:21:39;-16.96;45.73
74376;HTU21D;62812;55.188;61.302;2024-01-11T09:24:08;-17.03;45.92
74376;HTU21D;62812;55.188;61.302;2024-01-11T09:26:40;-17.16;46.64
74376;HTU21D;62812;55.188;61.302;2024-01-11T09:29:43;-17.12;46.99
74376;HTU21D;62812;55.188;61.302;2024-01-11T09:32:10;-17.08;47.05
74376;HTU21D;62812;55.188;61.302;2024-01-11T09:34:59;-17.08;46.70
74376;HTU21D;62812;55.188;61.302;2024-01-11T09:37:54;-17.04;46.52
74376;HTU21D;62812;55.188;61.302;2024-01-11T09:41:03;-17.00;49.24
74376;HTU21D;62812;55.188;61.302;2024-01-11T09:43:56;-16.93;46.61
74376;HTU21D;62812;55.188;61.302;2024-01-11T09:47:21;-16.99;46.30
74376;HTU21D;62812;55.188;61.302;2024-01-11T09:50:44;-17.08;47.02
74376;HTU21D;62812;55.188;61.302;2024-01-11T09:57:33;-17.13;46.82
74376;HTU21D;62812;55.188;61.302;2024-01-11T10:00:22;-17.13;47.10
74376;HTU21D;62812;55.188;61.302;2024-01-11T10:02:55;-17.12;47.15
74376;HTU21D;62812;55.188;61.302;2024-01-11T10:05:26;-17.09;46.67
74376;HTU21D;62812;55.188;61.302;2024-01-11T10:08:04;-17.04;46.86
74376;HTU21D;62812;55.188;61.302;2024-01-11T10:10:31;-17.02;46.68
74376;HTU21D;62812;55.188;61.302;2024-01-11T10:13:05;-17.06;46.61
74376;HTU21D;62812;55.188;61.302;2024-01-11T10:15:55;-17.03;47.00
74376;HTU21D;62812;55.188;61.302;2024-01-11T10:18:30;-17.04;46.93
74376;HTU21D;62812;55.188;61.302;2024-01-11T10:20:59;-17.10;46.70
74376;HTU21D;62812;55.188;61.302;2024-01-11T10:23:42;-17.06;47.13
74376;HTU21D;62812;55.188;61.302;2024-01-11T10:26:11;-17.00;46.28
74376;HTU21D;62812;55.188;61.302;2024-01-11T10:28:43;-16.94;46.60
74376;HTU21D;62812;55.188;61.302;2024-01-11T10:31:22;-16.93;46.25
74376;HTU21D;62812;55.188;61.302;2024-01-11T10:33:54;-16.93;46.22
74376;HTU21D;62812;55.188;61.302;2024-01-11T10:36:20;-16.94;46.47
74376;HTU21D;62812;55.188;61.302;2024-01-11T10:38:55;-16.93;46.47
74376;HTU21D;62812;55.188;61.302;2024-01-11T10:41:22;-16.91;46.83
74376;HTU21D;62812;55.188;61.302;2024-01-11T10:43:59;-16.96;46.69
74376;HTU21D;62812;55.188;61.302;2024-01-11T10:46:28;-16.98;46.64
74376;HTU21D;62812;55.188;61.302;2024-01-11T10:49:04;-17.07;47.13
74376;HTU21D;62812;55.188;61.302;2024-01-11T10:54:27;-17.11;48.12
74376;HTU21D;62812;55.188;61.302;2024-01-11T10:56:58;-17.04;47.94
74376;HTU21D;62812;55.188;61.302;2024-01-11T10:59:31;-17.04;48.52
74376;HTU21D;62812;55.188;61.302;2024-01-11T11:02:04;-17.02;48.31
74376;HTU21D;62812;55.188;61.302;2024-01-11T11:04:36;-17.00;47.86
74376;HTU21D;62812;55.188;61.302;2024-01-11T11:07:04;-16.98;47.45
74376;HTU21D;62812;55.188;61.302;2024-01-11T11:09:37;-17.03;47.04
74376;HTU21D;62812;55.188;61.302;2024-01-11T11:12:07;-17.06;47.67
74376;HTU21D;62812;55.188;61.302;2024-01-11T11:14:35;-17.09;47.61
74376;HTU21D;62812;55.188;61.302;2024-01-11T11:17:01;-17.11;47.85
74376;HTU21D;62812;55.188;61.302;2024-01-11T11:19:28;-17.12;48.03
74376;HTU21D;62812;55.188;61.302;2024-01-11T11:22:03;-17.11;48.11
74376;HTU21D;62812;55.188;61.302;2024-01-11T11:24:35;-17.11;48.08
74376;HTU21D;62812;55.188;61.302;2024-01-11T11:27:02;-17.15;47.84
74376;HTU21D;62812;55.188;61.302;2024-01-11T11:29:29;-17.15;47.86
74376;HTU21D;62812;55.188;61.302;2024-01-11T11:31:56;-17.14;48.05
74376;HTU21D;62812;55.188;61.302;2024-01-11T11:34:42;-17.18;48.46
74376;HTU21D;62812;55.188;61.302;2024-01-11T11:37:10;-17.23;48.76
74376;HTU21D;62812;55.188;61.302;2024-01-11T11:39:48;-17.24;48.71
74376;HTU21D;62812;55.188;61.302;2024-01-11T11:43:04;-17.26;48.91
74376;HTU21D;62812;55.188;61.302;2024-01-11T11:45:36;-17.30;49.21
74376;HTU21D;62812;55.188;61.302;2024-01-11T11:51:15;-17.43;49.73
74376;HTU21D;62812;55.188;61.302;2024-01-11T11:53:42;-17.46;49.65
74376;HTU21D;62812;55.188;61.302;2024-01-11T11:56:11;-17.47;49.34
74376;HTU21D;62812;55.188;61.302;2024-01-11T11:58:50;-17.48;49.44
74376;HTU21D;62812;55.188;61.302;2024-01-11T12:01:24;-17.52;49.47
74376;HTU21D;62812;55.188;61.302;2024-01-11T12:03:51;-17.52;49.65
74376;HTU21D;62812;55.188;61.302;2024-01-11T12:06:21;-17.52;49.85
74376;HTU21D;62812;55.188;61.302;2024-01-11T12:09:02;-17.52;50.10
74376;HTU21D;62812;55.188;61.302;2024-01-11T12:12:01;-17.55;50.64
74376;HTU21D;62812;55.188;61.302;2024-01-11T12:15:11;-17.55;50.53
74376;HTU21D;62812;55.188;61.302;2024-01-11T12:18:04;-17.54;50.82
74376;HTU21D;62812;55.188;61.302;2024-01-11T12:20:36;-17.48;51.00
74376;HTU21D;62812;55.188;61.302;2024-01-11T12:23:11;-17.47;50.99
74376;HTU21D;62812;55.188;61.302;2024-01-11T12:26:25;-17.48;51.20
74376;HTU21D;62812;55.188;61.302;2024-01-11T12:29:22;-17.51;51.51
74376;HTU21D;62812;55.188;61.302;2024-01-11T12:32:05;-17.58;52.00
74376;HTU21D;62812;55.188;61.302;2024-01-11T12:34:35;-17.61;52.44
74376;HTU21D;62812;55.188;61.302;2024-01-11T12:37:05;-17.63;52.27
74376;HTU21D;62812;55.188;61.302;2024-01-11T12:39:32;-17.65;52.40
74376;HTU21D;62812;55.188;61.302;2024-01-11T12:42:02;-17.70;52.56
74376;HTU21D;62812;55.188;61.302;2024-01-11T12:44:30;-17.70;52.53
74376;HTU21D;62812;55.188;61.302;2024-01-11T12:47:04;-17.73;52.77
74376;HTU21D;62812;55.188;61.302;2024-01-11T12:49:35;-17.73;53.07
74376;HTU21D;62812;55.188;61.302;2024-01-11T12:52:03;-17.73;53.27
74376;HTU21D;62812;55.188;61.302;2024-01-11T12:54:34;-17.75;53.32
74376;HTU21D;62812;55.188;61.302;2024-01-11T12:57:05;-17.74;53.54
74376;HTU21D;62812;55.188;61.302;2024-01-11T13:07:32;-17.81;53.66
74376;HTU21D;62812;55.188;61.302;2024-01-11T13:10:01;-17.82;53.80
74376;HTU21D;62812;55.188;61.302;2024-01-11T13:12:34;-17.82;54.09
74376;HTU21D;62812;55.188;61.302;2024-01-11T13:18:36;-17.82;54.47
74376;HTU21D;62812;55.188;61.302;2024-01-11T13:21:32;-17.83;54.52
74376;HTU21D;62812;55.188;61.302;2024-01-11T13:24:20;-17.84;54.82
74376;HTU21D;62812;55.188;61.302;2024-01-11T13:27:19;-17.82;55.01
74376;HTU21D;62812;55.188;61.302;2024-01-11T13:29:48;-17.82;55.13
74376;HTU21D;62812;55.188;61.302;2024-01-11T13:32:20;-17.84;55.06
74376;HTU21D;62812;55.188;61.302;2024-01-11T13:34:56;-17.83;55.10
74376;HTU21D;62812;55.188;61.302;2024-01-11T13:37:24;-17.80;55.31
74376;HTU21D;62812;55.188;61.302;2024-01-11T13:40:22;-17.82;55.05
74376;HTU21D;62812;55.188;61.302;2024-01-11T13:43:00;-17.81;55.10
74376;HTU21D;62812;55.188;61.302;2024-01-11T13:49:09;-17.78;55.29
74376;HTU21D;62812;55.188;61.302;2024-01-11T13:51:41;-17.81;55.24
74376;HTU21D;62812;55.188;61.302;2024-01-11T13:54:08;-17.77;55.33
74376;HTU21D;62812;55.188;61.302;2024-01-11T13:56:36;-17.75;55.33
74376;HTU21D;62812;55.188;61.302;2024-01-11T13:59:05;-17.73;55.31
74376;HTU21D;62812;55.188;61.302;2024-01-11T14:01:36;-17.74;55.29
74376;HTU21D;62812;55.188;61.302;2024-01-11T14:04:13;-17.74;55.34
74376;HTU21D;62812;55.188;61.302;2024-01-11T14:09:21;-17.71;55.25
74376;HTU21D;62812;55.188;61.302;2024-01-11T14:12:01;-17.71;55.18
74376;HTU21D;62812;55.188;61.302;2024-01-11T14:14:28;-17.74;55.22
74376;HTU21D;62812;55.188;61.302;2024-01-11T14:16:55;-17.75;55.44
74376;HTU21D;62812;55.188;61.302;2024-01-11T14:19:24;-17.78;55.54
74376;HTU21D;62812;55.188;61.302;2024-01-11T14:21:51;-17.77;55.68
74376;HTU21D;62812;55.188;61.302;2024-01-11T14:24:17;-17.75;55.62
74376;HTU21D;62812;55.188;61.302;2024-01-11T14:26:44;-17.77;55.55
74376;HTU21D;62812;55.188;61.302;2024-01-11T14:29:20;-17.77;55.50
74376;HTU21D;62812;55.188;61.302;2024-01-11T14:31:50;-17.80;55.71
74376;HTU21D;62812;55.188;61.302;2024-01-11T14:34:20;-17.81;55.82
74376;HTU21D;62812;55.188;61.302;2024-01-11T14:36:52;-17.81;56.03
74376;HTU21D;62812;55.188;61.302;2024-01-11T14:39:24;-17.83;56.19
74376;HTU21D;62812;55.188;61.302;2024-01-11T14:41:55;-17.83;56.23
74376;HTU21D;62812;55.188;61.302;2024-01-11T14:44:53;-17.82;56.42
74376;HTU21D;62812;55.188;61.302;2024-01-11T14:47:22;-17.81;56.26
74376;HTU21D;62812;55.188;61.302;2024-01-11T14:49:54;-17.84;56.41
74376;HTU21D;62812;55.188;61.302;2024-01-11T14:52:54;-17.83;56.40
74376;HTU21D;62812;55.188;61.302;2024-01-11T14:55:46;-17.83;56.53
74376;HTU21D;62812;55.188;61.302;2024-01-11T14:58:46;-17.81;56.63
74376;HTU21D;62812;55.188;61.302;2024-01-11T15:01:27;-17.80;56.48
74376;HTU21D;62812;55.188;61.302;2024-01-11T15:03:55;-17.80;56.61
74376;HTU21D;62812;55.188;61.302;2024-01-11T15:06:29;-17.76;56.66
74376;HTU21D;62812;55.188;61.302;2024-01-11T15:09:03;-17.74;56.70
74376;HTU21D;62812;55.188;61.302;2024-01-11T15:11:31;-17.73;56.58
74376;HTU21D;62812;55.188;61.302;2024-01-11T15:14:02;-17.71;56.65
74376;HTU21D;62812;55.188;61.302;2024-01-11T15:16:33;-17.66;56.67
74376;HTU21D;62812;55.188;61.302;2024-01-11T15:19:02;-17.63;56.71
74376;HTU21D;62812;55.188;61.302;2024-01-11T15:22:13;-17.51;56.61
74376;HTU21D;62812;55.188;61.302;2024-01-11T15:24:47;-17.40;56.29
74376;HTU21D;62812;55.188;61.302;2024-01-11T15:27:19;-17.32;56.09
74376;HTU21D;62812;55.188;61.302;2024-01-11T15:29:49;-17.20;55.90
74376;HTU21D;62812;55.188;61.302;2024-01-11T15:32:20;-17.11;55.39
74376;HTU21D;62812;55.188;61.302;2024-01-11T15:34:51;-17.03;55.42
74376;HTU21D;62812;55.188;61.302;2024-01-11T15:37:20;-16.91;55.05
74376;HTU21D;62812;55.188;61.302;2024-01-11T15:39:51;-16.92;54.71
74376;HTU21D;62812;55.188;61.302;2024-01-11T15:42:21;-16.83;54.67
74376;HTU21D;62812;55.188;61.302;2024-01-11T15:44:50;-16.79;54.38
74376;HTU21D;62812;55.188;61.302;2024-01-11T15:47:25;-16.82;54.56
74376;HTU21D;62812;55.188;61.302;2024-01-11T15:50:19;-16.79;54.85
74376;HTU21D;62812;55.188;61.302;2024-01-11T15:53:06;-16.74;54.84
74376;HTU21D;62812;55.188;61.302;2024-01-11T15:55:37;-16.78;54.54
74376;HTU21D;62812;55.188;61.302;2024-01-11T15:58:04;-16.78;54.61
74376;HTU21D;62812;55.188;61.302;2024-01-11T16:00:38;-16.79;54.78
74376;HTU21D;62812;55.188;61.302;2024-01-11T16:03:23;-16.76;54.91
74376;HTU21D;62812;55.188;61.302;2024-01-11T16:05:50;-16.57;54.84
74376;HTU21D;62812;55.188;61.302;2024-01-11T16:08:21;-16.55;54.21
74376;HTU21D;62812;55.188;61.302;2024-01-11T16:10:52;-16.57;54.36
74376;HTU21D;62812;55.188;61.302;2024-01-11T16:13:25;-16.62;54.75
74376;HTU21D;62812;55.188;61.302;2024-01-11T16:15:52;-16.65;55.00
74376;HTU21D;62812;55.188;61.302;2024-01-11T16:18:28;-16.69;55.12